createdAt,value
2024-02-13T00:01:03.199Z,97299.84
2024-02-13T00:03:30.838Z,97306.97
2024-02-13T00:05:59.489Z,97310.22
2024-02-13T00:08:36.413Z,97309.66
2024-02-13T00:11:14.923Z,97310.25
2024-02-13T00:13:48.054Z,97313.94
2024-02-13T00:16:19.423Z,97305.81
2024-02-13T00:18:51.685Z,97305.63
2024-02-13T00:21:19.433Z,97321.50
2024-02-13T00:23:47.942Z,97319.25
2024-02-13T00:26:15.683Z,97321.72
2024-02-13T00:28:45.360Z,97325.38
2024-02-13T00:31:12.985Z,97318.25
2024-02-13T00:33:42.115Z,97325.78
2024-02-13T00:36:09.812Z,97330.47
2024-02-13T00:38:37.327Z,97335.13
2024-02-13T00:41:06.024Z,97333.53
2024-02-13T00:43:33.940Z,97332.09
2024-02-13T00:46:01.633Z,97340.22
2024-02-13T00:48:31.571Z,97331.25
2024-02-13T00:50:59.781Z,97338.16
2024-02-13T00:53:27.328Z,97338.56
2024-02-13T00:55:55.184Z,97336.56
2024-02-13T00:58:22.677Z,97338.16
2024-02-13T01:00:50.488Z,97347.75
2024-02-13T01:03:18.051Z,97356.66
2024-02-13T01:05:45.831Z,97357.28
2024-02-13T01:08:13.583Z,97357.91
2024-02-13T01:10:41.116Z,97359.31
2024-02-13T01:13:08.848Z,97361.13
2024-02-13T01:15:37.338Z,97363.78
2024-02-13T01:18:06.330Z,97360.50
2024-02-13T01:20:33.982Z,97369.84
2024-02-13T01:23:01.449Z,97368.44
2024-02-13T01:25:29.883Z,97370.84
2024-02-13T01:27:58.584Z,97377.16
2024-02-13T01:30:26.131Z,97380.19
2024-02-13T01:32:54.120Z,97377.53
2024-02-13T01:35:21.696Z,97391.13
2024-02-13T01:37:49.149Z,97394.34
2024-02-13T01:40:17.638Z,97399.63
2024-02-13T01:42:49.963Z,97406.31
2024-02-13T01:45:18.387Z,97400.59
2024-02-13T01:47:46.414Z,97407.28
2024-02-13T01:50:19.725Z,97408.06
2024-02-13T01:52:49.931Z,97404.63
2024-02-13T01:55:21.368Z,97413.09
2024-02-13T01:57:50.255Z,97418.59
2024-02-13T02:00:18.157Z,97419.63
2024-02-13T02:02:49.360Z,97416.34
2024-02-13T02:05:17.573Z,97421.41
2024-02-13T02:07:46.391Z,97431.38
2024-02-13T02:10:14.777Z,97427.69
2024-02-13T02:12:42.719Z,97428.09
2024-02-13T02:15:13.317Z,97431.13
2024-02-13T02:17:41.137Z,97436.00
2024-02-13T02:20:09.152Z,97433.59
2024-02-13T02:22:36.707Z,97427.84
2024-02-13T02:25:08.305Z,97442.06
2024-02-13T02:27:36.689Z,97444.28
2024-02-13T02:30:05.282Z,97446.69
2024-02-13T02:32:32.949Z,97445.88
2024-02-13T02:35:00.580Z,97447.88
2024-02-13T02:37:28.196Z,97449.91
2024-02-13T02:39:55.769Z,97454.56
2024-02-13T02:42:23.457Z,97459.81
2024-02-13T02:44:51.726Z,97458.81
2024-02-13T02:47:19.583Z,97458.00
2024-02-13T02:49:47.186Z,97468.53
2024-02-13T02:52:14.906Z,97459.81
2024-02-13T02:54:43.322Z,97473.81
2024-02-13T02:57:13.835Z,97487.19
2024-02-13T02:59:41.513Z,97482.75
2024-02-13T03:02:10.328Z,97491.66
2024-02-13T03:04:38.021Z,97485.78
2024-02-13T03:07:05.553Z,97487.28
2024-02-13T03:09:33.194Z,97490.38
2024-02-13T03:12:01.834Z,97491.66
2024-02-13T03:14:30.535Z,97498.97
2024-02-13T03:16:58.143Z,97505.91
2024-02-13T03:19:25.751Z,97509.75
2024-02-13T03:21:53.492Z,97516.28
2024-02-13T03:24:21.020Z,97514.47
2024-02-13T03:26:48.754Z,97521.22
2024-02-13T03:29:16.474Z,97528.91
2024-02-13T03:31:43.995Z,97522.06
2024-02-13T03:34:12.089Z,97535.06
2024-02-13T03:36:39.664Z,97535.47
2024-02-13T03:39:07.660Z,97537.09
2024-02-13T03:41:46.947Z,97537.31
2024-02-13T03:44:14.799Z,97542.38
2024-02-13T03:46:43.554Z,97553.56
2024-02-13T03:49:11.744Z,97556.22
2024-02-13T03:51:39.583Z,97563.09
2024-02-13T03:54:08.652Z,97567.19
2024-02-13T03:56:39.643Z,97570.59
2024-02-13T03:59:11.956Z,97566.75
2024-02-13T04:01:40.770Z,97575.66
2024-02-13T04:04:08.181Z,97566.94
2024-02-13T04:06:36.682Z,97579.53
2024-02-13T04:09:08.438Z,97586.81
2024-02-13T04:11:37.090Z,97591.69
2024-02-13T04:14:04.692Z,97593.13
2024-02-13T04:16:32.332Z,97595.75
2024-02-13T04:19:00.616Z,97590.31
2024-02-13T04:21:28.310Z,97591.13
2024-02-13T04:23:55.936Z,97601.47
2024-02-13T04:26:31.390Z,97609.56
2024-02-13T04:29:05.157Z,97602.03
2024-02-13T04:31:32.739Z,97608.97
2024-02-13T04:34:00.629Z,97618.28
2024-02-13T04:36:29.093Z,97615.47
2024-02-13T04:38:56.809Z,97622.97
2024-02-13T04:41:24.570Z,97626.59
2024-02-13T04:43:55.733Z,97620.50
2024-02-13T04:46:26.985Z,97628.41
2024-02-13T04:48:55.245Z,97635.34
2024-02-13T04:51:25.121Z,97636.53
2024-02-13T04:53:53.672Z,97640.38
2024-02-13T04:56:21.436Z,97648.72
2024-02-13T04:58:49.370Z,97657.84
2024-02-13T05:01:17.036Z,97653.19
2024-02-13T05:04:04.673Z,97654.59
2024-02-13T05:06:50.760Z,97656.38
2024-02-13T05:09:18.841Z,97657.84
2024-02-13T05:11:46.442Z,97660.69
2024-02-13T05:14:14.125Z,97673.50
2024-02-13T05:16:42.684Z,97670.03
2024-02-13T05:19:10.613Z,97678.13
2024-02-13T05:21:38.254Z,97676.50
2024-02-13T05:24:06.639Z,97672.06
2024-02-13T05:26:35.160Z,97676.69
2024-02-13T05:29:04.944Z,97679.09
2024-02-13T05:31:32.598Z,97681.28
2024-02-13T05:34:00.518Z,97691.78
2024-02-13T05:36:28.369Z,97691.16
2024-02-13T05:38:56.944Z,97693.53
2024-02-13T05:41:24.537Z,97695.78
2024-02-13T05:43:53.836Z,97699.41
2024-02-13T05:46:21.894Z,97704.44
2024-02-13T05:48:50.805Z,97713.97
2024-02-13T05:51:20.025Z,97717.16
2024-02-13T05:53:47.789Z,97719.63
2024-02-13T05:56:26.096Z,97727.97
2024-02-13T05:58:59.344Z,97725.97
2024-02-13T06:01:27.423Z,97731.31
2024-02-13T06:03:59.658Z,97740.28
2024-02-13T06:06:27.461Z,97739.88
2024-02-13T06:08:58.003Z,97754.84
2024-02-13T06:11:28.125Z,97742.50
2024-02-13T06:13:57.109Z,97750.84
2024-02-13T06:16:24.612Z,97758.56
2024-02-13T06:18:52.363Z,97761.84
2024-02-13T06:21:23.507Z,97772.56
2024-02-13T06:23:53.322Z,97775.16
2024-02-13T06:26:20.928Z,97780.69
2024-02-13T06:28:48.559Z,97784.88
2024-02-13T06:31:16.631Z,97786.34
2024-02-13T06:33:44.726Z,97787.97
2024-02-13T06:36:12.482Z,97790.78
2024-02-13T06:38:40.122Z,97803.25
2024-02-13T06:41:09.618Z,97806.06
2024-02-13T06:43:37.599Z,97809.97
2024-02-13T06:46:06.021Z,97807.50
2024-02-13T06:48:34.155Z,97814.53
2024-02-13T06:51:02.503Z,97809.69
2024-02-13T06:53:30.430Z,97817.88
2024-02-13T06:55:57.873Z,97827.59
2024-02-13T06:58:25.525Z,97829.25
2024-02-13T07:00:53.216Z,97824.72
2024-02-13T07:03:21.194Z,97838.94
2024-02-13T07:05:49.604Z,97828.81
2024-02-13T07:08:17.979Z,97834.22
2024-02-13T07:10:45.606Z,97838.75
2024-02-13T07:13:13.201Z,97845.56
2024-02-13T07:15:40.758Z,97839.97
2024-02-13T07:18:09.553Z,97844.44
2024-02-13T07:20:37.287Z,97850.63
2024-02-13T07:23:05.158Z,97853.88
2024-02-13T07:25:32.732Z,97849.28
2024-02-13T07:28:00.402Z,97853.81
2024-02-13T07:30:28.006Z,97851.38
2024-02-13T07:32:56.500Z,97852.81
2024-02-13T07:35:24.374Z,97862.50
2024-02-13T07:37:51.998Z,97858.41
2024-02-13T07:40:19.578Z,97859.22
2024-02-13T07:42:47.442Z,97870.09
2024-02-13T07:45:14.921Z,97870.41
2024-02-13T07:47:43.070Z,97875.56
2024-02-13T07:50:11.664Z,97879.47
2024-02-13T07:52:39.622Z,97884.00
2024-02-13T07:55:07.456Z,97888.47
2024-02-13T07:57:36.427Z,97883.44
2024-02-13T08:00:05.347Z,97888.56
2024-02-13T08:02:32.987Z,97891.59
2024-02-13T08:05:01.089Z,97890.66
2024-02-13T08:07:29.529Z,97893.53
2024-02-13T08:09:57.323Z,97892.31
2024-02-13T08:12:26.009Z,97893.78
2024-02-13T08:14:53.741Z,97885.03
2024-02-13T08:17:21.454Z,97891.81
2024-02-13T08:19:49.203Z,97887.97
2024-02-13T08:22:19.600Z,97889.59
2024-02-13T08:24:47.298Z,97896.72
2024-02-13T08:27:19.539Z,97894.94
2024-02-13T08:29:47.500Z,97898.34
2024-02-13T08:32:15.077Z,97896.97
2024-02-13T08:34:42.766Z,97893.16
2024-02-13T08:37:10.371Z,97898.88
2024-02-13T08:39:37.983Z,97902.47
2024-02-13T08:42:06.044Z,97905.97
2024-02-13T08:44:36.095Z,97908.38
2024-02-13T08:47:03.982Z,97904.22
2024-02-13T08:49:31.814Z,97904.63
2024-02-13T08:51:59.897Z,97901.56
2024-02-13T08:54:27.443Z,97909.50
2024-02-13T08:57:41.506Z,97914.81
2024-02-13T09:00:13.118Z,97919.91
2024-02-13T09:02:40.884Z,97919.50
2024-02-13T09:05:08.949Z,97922.31
2024-02-13T09:07:39.681Z,97920.63
2024-02-13T09:10:08.029Z,97929.00
2024-02-13T09:12:35.594Z,97925.75
2024-02-13T09:15:05.054Z,97930.19
2024-02-13T09:17:33.141Z,97930.84
2024-02-13T09:20:01.310Z,97940.75
2024-02-13T09:22:28.855Z,97934.59
2024-02-13T09:24:58.793Z,97930.53
2024-02-13T09:27:26.826Z,97930.13
2024-02-13T09:29:54.517Z,97935.44
2024-02-13T09:32:22.213Z,97940.91
2024-02-13T09:34:49.762Z,97940.72
2024-02-13T09:37:17.877Z,97949.28
2024-02-13T09:39:45.334Z,97942.78
2024-02-13T09:42:17.942Z,97939.31
2024-02-13T09:44:45.787Z,97948.47
2024-02-13T09:47:13.774Z,97952.38
2024-02-13T09:49:44.770Z,97958.69
2024-02-13T09:52:15.225Z,97957.63
2024-02-13T09:54:45.688Z,97951.59
2024-02-13T09:57:13.828Z,97950.66
2024-02-13T09:59:42.914Z,97945.72
2024-02-13T10:02:10.933Z,97948.00
2024-02-13T10:04:40.847Z,97947.09
2024-02-13T10:07:08.441Z,97959.22
2024-02-13T10:09:36.415Z,97947.56
2024-02-13T10:12:11.490Z,97958.56
2024-02-13T10:14:39.458Z,97951.31
2024-02-13T10:17:12.880Z,97952.53
2024-02-13T10:19:40.510Z,97960.00
2024-02-13T10:22:11.596Z,97956.34
2024-02-13T10:24:40.429Z,97951.69
2024-02-13T10:27:11.026Z,97952.94
2024-02-13T10:29:47.688Z,97956.88
2024-02-13T10:32:18.410Z,97955.84
2024-02-13T10:34:46.223Z,97950.25
2024-02-13T10:37:17.817Z,97955.34
2024-02-13T10:39:48.512Z,97946.13
2024-02-13T10:42:22.205Z,97954.84
2024-02-13T10:44:51.782Z,97960.91
2024-02-13T10:47:22.783Z,97964.25
2024-02-13T10:50:00.334Z,97961.16
2024-02-13T10:52:29.521Z,97965.97
2024-02-13T10:54:58.735Z,97955.84
2024-02-13T10:57:26.352Z,97955.31
2024-02-13T10:59:54.596Z,97952.56
2024-02-13T11:02:22.983Z,97947.75
2024-02-13T11:04:51.253Z,97956.72
2024-02-13T11:07:19.873Z,97948.53
2024-02-13T11:09:47.642Z,97952.53
2024-02-13T11:12:16.011Z,97951.94
2024-02-13T11:14:44.225Z,97952.31
2024-02-13T11:17:14.560Z,97946.00
2024-02-13T11:19:49.619Z,97943.16
2024-02-13T11:22:32.754Z,97946.25
2024-02-13T11:25:07.449Z,97942.09
2024-02-13T11:27:38.519Z,97942.94
2024-02-13T11:30:08.520Z,97946.63
2024-02-13T11:32:39.916Z,97948.25
2024-02-13T11:35:12.866Z,97939.34
2024-02-13T11:37:43.406Z,97948.41
2024-02-13T11:40:16.648Z,97943.97
2024-02-13T11:42:46.035Z,97942.75
2024-02-13T11:45:27.524Z,97955.03
2024-02-13T11:50:23.435Z,97960.75
2024-02-13T11:52:53.130Z,97955.44
2024-02-13T11:55:22.147Z,97953.97
2024-02-13T11:57:49.845Z,97960.59
2024-02-13T12:00:21.248Z,97954.69
2024-02-13T12:02:55.709Z,97963.50
2024-02-13T12:05:26.543Z,97952.75
2024-02-13T12:07:55.434Z,97952.88
2024-02-13T12:10:23.402Z,97963.22
2024-02-13T12:12:51.424Z,97954.16
2024-02-13T12:15:23.887Z,97958.66
2024-02-13T12:18:01.180Z,97957.47
2024-02-13T12:20:31.059Z,97960.09
2024-02-13T12:23:07.517Z,97958.19
2024-02-13T12:25:36.981Z,97960.38
2024-02-13T12:28:07.090Z,97956.22
2024-02-13T12:30:35.122Z,97950.63
2024-02-13T12:33:09.168Z,97961.59
2024-02-13T12:35:38.246Z,97957.09
2024-02-13T12:38:13.927Z,97954.69
2024-02-13T12:40:43.184Z,97963.22
2024-02-13T12:43:11.176Z,97955.84
2024-02-13T12:45:44.640Z,97959.50
2024-02-13T12:48:18.798Z,97959.25
2024-02-13T12:50:47.915Z,97954.63
2024-02-13T12:53:17.859Z,97958.31
2024-02-13T12:55:49.236Z,97954.53
2024-02-13T12:58:22.860Z,97958.63
2024-02-13T13:00:50.597Z,97952.69
2024-02-13T13:03:20.709Z,97949.06
2024-02-13T13:05:51.127Z,97954.50
2024-02-13T13:08:23.757Z,97949.81
2024-02-13T13:10:52.028Z,97957.34
2024-02-13T13:13:21.195Z,97949.91
2024-02-13T13:15:48.900Z,97955.31
2024-02-13T13:18:20.617Z,97965.50
2024-02-13T13:20:49.882Z,97961.75
2024-02-13T13:23:17.703Z,97951.03
2024-02-13T13:25:53.534Z,97953.78
2024-02-13T13:28:27.512Z,97955.44
2024-02-13T13:31:02.415Z,97957.91
2024-02-13T13:33:32.656Z,97960.81
2024-02-13T13:36:01.839Z,97964.06
2024-02-13T13:38:30.309Z,97965.47
2024-02-13T13:41:03.074Z,97964.91
2024-02-13T13:43:31.195Z,97971.84
2024-02-13T13:45:59.454Z,97975.53
2024-02-13T13:48:30.818Z,97973.81
2024-02-13T13:50:59.246Z,97966.03
2024-02-13T13:53:26.990Z,97966.16
2024-02-13T13:55:54.531Z,97959.84
2024-02-13T13:58:24.076Z,97968.09
2024-02-13T14:00:51.681Z,97971.44
2024-02-13T14:03:19.540Z,97970.72
2024-02-13T14:05:47.354Z,97969.53
2024-02-13T14:08:14.849Z,97975.28
2024-02-13T14:10:43.982Z,97978.50
2024-02-13T14:13:13.005Z,97975.25
2024-02-13T14:15:40.547Z,97974.84
2024-02-13T14:18:12.661Z,97988.38
2024-02-13T14:20:40.728Z,97983.06
2024-02-13T14:23:09.761Z,97988.00
2024-02-13T14:25:38.372Z,97985.97
2024-02-13T14:28:09.031Z,97994.94
2024-02-13T14:30:36.550Z,97997.19
2024-02-13T14:33:08.073Z,98000.88
2024-02-13T14:35:38.082Z,98005.38
2024-02-13T14:38:09.242Z,98009.88
2024-02-13T14:40:41.016Z,98011.94
2024-02-13T14:43:09.969Z,98015.00
2024-02-13T14:45:38.463Z,98010.31
2024-02-13T14:48:14.202Z,98015.41
2024-02-13T14:50:42.897Z,98020.31
2024-02-13T14:53:12.318Z,98033.75
2024-02-13T14:55:40.430Z,98031.34
2024-02-13T14:58:18.439Z,98030.72
2024-02-13T15:00:54.827Z,98036.19
2024-02-13T15:03:25.330Z,98033.72
2024-02-13T15:05:54.420Z,98032.50
2024-02-13T15:08:23.316Z,98028.41
2024-02-13T15:10:51.003Z,98036.19
2024-02-13T15:13:20.273Z,98023.50
2024-02-13T15:15:52.493Z,98022.69
2024-02-13T15:18:23.646Z,98028.63
2024-02-13T15:20:51.555Z,98026.38
2024-02-13T15:23:19.095Z,98021.88
2024-02-13T15:25:46.789Z,98026.78
2024-02-13T15:28:15.204Z,98027.16
2024-02-13T15:30:42.765Z,98027.31
2024-02-13T15:33:10.297Z,98028.31
2024-02-13T15:35:43.389Z,98031.78
2024-02-13T15:38:30.153Z,98023.41
2024-02-13T15:41:19.080Z,98024.19
2024-02-13T15:44:05.263Z,98022.97
2024-02-13T15:46:51.435Z,98024.19
2024-02-13T15:49:20.739Z,98029.88
2024-02-13T15:51:52.381Z,98029.44
2024-02-13T15:54:20.173Z,98033.47
2024-02-13T15:56:49.982Z,98042.03
2024-02-13T15:59:18.543Z,98044.66
2024-02-13T16:01:47.300Z,98050.91
2024-02-13T16:04:21.701Z,98055.50
2024-02-13T16:06:54.385Z,98056.66
2024-02-13T16:09:22.102Z,98059.66
2024-02-13T16:11:49.756Z,98061.63
2024-02-13T16:14:18.767Z,98067.09
2024-02-13T16:16:47.050Z,98068.47
2024-02-13T16:19:14.693Z,98072.06
2024-02-13T16:21:42.604Z,98072.41
2024-02-13T16:24:10.264Z,98077.81
2024-02-13T16:26:39.144Z,98066.34
2024-02-13T16:29:09.776Z,98073.78
2024-02-13T16:31:37.568Z,98079.38
2024-02-13T16:34:05.344Z,98081.75
2024-02-13T16:36:33.032Z,98086.34
2024-02-13T16:39:00.914Z,98090.00
2024-02-13T16:41:28.544Z,98090.44
2024-02-13T16:43:56.076Z,98100.28
2024-02-13T16:46:23.583Z,98104.44
2024-02-13T16:48:54.825Z,98103.91
2024-02-13T16:51:22.984Z,98106.03
2024-02-13T16:53:50.759Z,98112.41
2024-02-13T16:56:19.805Z,98119.25
2024-02-13T16:58:47.347Z,98117.31
2024-02-13T17:01:16.701Z,98118.66
2024-02-13T17:03:48.091Z,98120.03
2024-02-13T17:06:16.060Z,98121.41
2024-02-13T17:08:43.849Z,98121.78
2024-02-13T17:11:11.599Z,98120.78
2024-02-13T17:13:39.100Z,98119.31
2024-02-13T17:16:09.553Z,98125.31
2024-02-13T17:18:37.340Z,98116.66
2024-02-13T17:21:06.130Z,98118.53
2024-02-13T17:23:33.862Z,98125.56
2024-02-13T17:26:01.310Z,98123.63
2024-02-13T17:28:28.885Z,98133.06
2024-02-13T17:30:58.323Z,98125.25
2024-02-13T17:33:26.079Z,98130.38
2024-02-13T17:35:55.583Z,98124.66
2024-02-13T17:38:24.603Z,98124.53
2024-02-13T17:40:53.697Z,98118.97
2024-02-13T17:43:21.304Z,98120.50
2024-02-13T17:45:48.885Z,98120.16
2024-02-13T17:48:16.804Z,98119.81
2024-02-13T17:50:44.420Z,98124.91
2024-02-13T17:53:12.038Z,98116.84
2024-02-13T17:55:39.780Z,98130.13
2024-02-13T17:58:07.544Z,98125.31
2024-02-13T18:00:36.001Z,98129.41
2024-02-13T18:03:03.833Z,98131.03
2024-02-13T18:05:34.737Z,98135.31
2024-02-13T18:08:04.598Z,98140.94
2024-02-13T18:10:32.229Z,98138.31
2024-02-13T18:12:59.978Z,98138.03
2024-02-13T18:15:28.522Z,98140.47
2024-02-13T18:17:59.515Z,98145.13
2024-02-13T18:20:28.345Z,98140.00
2024-02-13T18:22:56.020Z,98140.72
2024-02-13T18:25:23.579Z,98141.25
2024-02-13T18:27:51.107Z,98143.41
2024-02-13T18:30:19.002Z,98142.47
2024-02-13T18:32:46.652Z,98142.81
2024-02-13T18:35:14.418Z,98144.53
2024-02-13T18:37:42.162Z,98150.50
2024-02-13T18:40:11.150Z,98146.03
2024-02-13T18:42:39.692Z,98146.19
2024-02-13T18:45:09.930Z,98143.09
2024-02-13T18:47:37.734Z,98142.78
2024-02-13T18:50:05.691Z,98146.63
2024-02-13T18:52:33.548Z,98140.84
2024-02-13T18:55:01.155Z,98143.66
2024-02-13T18:57:29.380Z,98151.44
2024-02-13T18:59:58.431Z,98148.00
2024-02-13T19:02:26.938Z,98151.47
2024-02-13T19:04:54.405Z,98149.03
2024-02-13T19:07:21.954Z,98157.91
2024-02-13T19:09:49.434Z,98156.75
2024-02-13T19:12:17.007Z,98157.56
2024-02-13T19:14:44.870Z,98168.53
2024-02-13T19:17:12.470Z,98161.75
2024-02-13T19:19:40.497Z,98155.16
2024-02-13T19:22:08.068Z,98149.06
2024-02-13T19:24:36.282Z,98145.63
2024-02-13T19:27:04.236Z,98145.31
2024-02-13T19:29:31.837Z,98153.44
2024-02-13T19:31:59.482Z,98155.47
2024-02-13T19:34:28.458Z,98162.22
2024-02-13T19:36:57.744Z,98161.91
2024-02-13T19:39:25.245Z,98173.31
2024-02-13T19:41:54.240Z,98168.84
2024-02-13T19:44:23.465Z,98174.13
2024-02-13T19:46:51.118Z,98175.75
2024-02-13T19:49:18.748Z,98178.38
2024-02-13T19:51:46.977Z,98179.53
2024-02-13T19:54:15.123Z,98183.34
2024-02-13T19:56:42.666Z,98186.81
2024-02-13T19:59:10.315Z,98183.03
2024-02-13T20:01:37.954Z,98198.69
2024-02-13T20:04:06.498Z,98200.19
2024-02-13T20:06:35.277Z,98197.22
2024-02-13T20:09:03.999Z,98205.78
2024-02-13T20:11:31.753Z,98206.78
2024-02-13T20:14:00.335Z,98206.31
2024-02-13T20:16:28.107Z,98209.41
2024-02-13T20:18:59.371Z,98197.91
2024-02-13T20:21:30.744Z,98186.88
2024-02-13T20:23:58.688Z,98182.38
2024-02-13T20:26:26.285Z,98177.28
2024-02-13T20:28:53.827Z,98172.38
2024-02-13T20:31:23.525Z,98169.69
2024-02-13T20:33:51.448Z,98169.88
2024-02-13T20:36:19.538Z,98170.84
2024-02-13T20:38:47.237Z,98173.81
2024-02-13T20:41:15.762Z,98169.56
2024-02-13T20:43:44.942Z,98169.75
2024-02-13T20:46:16.756Z,98168.06
2024-02-13T20:48:44.801Z,98180.59
2024-02-13T20:51:12.547Z,98174.00
2024-02-13T20:53:40.213Z,98174.19
2024-02-13T20:56:07.819Z,98166.78
2024-02-13T20:58:35.396Z,98172.88
2024-02-13T21:01:03.020Z,98173.69
2024-02-13T21:03:30.842Z,98172.84
2024-02-13T21:05:58.424Z,98173.66
2024-02-13T21:08:26.675Z,98175.47
2024-02-13T21:10:54.090Z,98175.16
2024-02-13T21:13:21.924Z,98177.13
2024-02-13T21:15:49.392Z,98182.03
2024-02-13T21:18:17.110Z,98186.31
2024-02-13T21:20:47.306Z,98186.81
2024-02-13T21:23:33.769Z,98188.91
2024-02-13T21:26:01.314Z,98179.38
2024-02-13T21:28:28.814Z,98180.69
2024-02-13T21:30:56.937Z,98188.13
2024-02-13T21:33:24.634Z,98183.72
2024-02-13T21:35:52.367Z,98183.25
2024-02-13T21:38:19.977Z,98177.66
2024-02-13T21:40:47.624Z,98173.72
2024-02-13T21:43:15.908Z,98173.72
2024-02-13T21:45:43.518Z,98173.88
2024-02-13T21:48:11.297Z,98174.88
2024-02-13T21:50:41.148Z,98175.84
2024-02-13T21:53:09.244Z,98170.75
2024-02-13T21:55:36.787Z,98171.91
2024-02-13T21:58:05.117Z,98171.25
2024-02-13T22:00:33.460Z,98168.00
2024-02-13T22:03:06.984Z,98168.00
2024-02-13T22:05:34.677Z,98167.16
2024-02-13T22:08:02.206Z,98165.34
2024-02-13T22:10:29.734Z,98162.38
2024-02-13T22:12:57.938Z,98166.66
2024-02-13T22:15:25.446Z,98163.03
2024-02-13T22:17:53.392Z,98166.50
2024-02-13T22:20:21.101Z,98168.28
2024-02-13T22:22:48.661Z,98182.44
2024-02-13T22:25:16.338Z,98165.66
2024-02-13T22:27:43.893Z,98160.72
2024-02-13T22:30:13.842Z,98165.34
2024-02-13T22:32:41.646Z,98168.47
2024-02-13T22:35:09.729Z,98164.69
2024-02-13T22:37:37.684Z,98171.09
2024-02-13T22:40:05.644Z,98170.47
2024-02-13T22:42:33.101Z,98179.84
2024-02-13T22:45:00.719Z,98167.66
2024-02-13T22:47:28.411Z,98169.97
2024-02-13T22:49:55.883Z,98172.25
2024-02-13T22:52:23.686Z,98175.22
2024-02-13T22:54:51.133Z,98182.97
2024-02-13T22:57:18.737Z,98174.88
2024-02-13T22:59:46.667Z,98185.59
2024-02-13T23:02:14.376Z,98182.78
2024-02-13T23:04:48.598Z,98179.66
2024-02-13T23:07:19.171Z,98182.09
2024-02-13T23:09:47.362Z,98180.78
2024-02-13T23:12:14.880Z,98177.47
2024-02-13T23:14:42.501Z,98179.94
2024-02-13T23:17:10.635Z,98182.38
2024-02-13T23:19:40.118Z,98183.72
2024-02-13T23:22:07.816Z,98181.09
2024-02-13T23:24:35.245Z,98190.00
2024-02-13T23:27:03.932Z,98183.72
2024-02-13T23:29:31.801Z,98182.25
2024-02-13T23:31:59.424Z,98183.06
2024-02-13T23:34:27.332Z,98184.06
2024-02-13T23:36:54.935Z,98181.75
2024-02-13T23:39:23.247Z,98182.78
2024-02-13T23:41:51.027Z,98177.13
2024-02-13T23:44:18.521Z,98183.56
2024-02-13T23:46:46.256Z,98179.81
2024-02-13T23:49:14.439Z,98179.13
2024-02-13T23:51:42.144Z,98178.66
2024-02-13T23:54:10.312Z,98177.66
2024-02-13T23:56:37.966Z,98184.41
2024-02-13T23:59:07.190Z,98182.91
